D/T METAR WX W/DIR W/SPE G/SPE TEMP DEWP
9/12/19 13:50 EGMD 091350Z 33027KT 9999 FEW038 09/01 Q1014 NNW (330°) 31.1mph 9°C 1°C
9/12/19 13:20 EGMD 091320Z 32028G39KT 9999 FEW035 09/01 Q1013 NW (320°) 32.2mph 44.9mph 9°C 1°C
9/12/19 12:50 EGMD 091250Z 33027KT 9999 FEW036 09/02 Q1011 NNW (330°) 31.1mph 9°C 2°C
9/12/19 12:20 EGMD 091220Z 32027KT 9999 FEW035 10/03 Q1011 NW (320°) 31.1mph 10°C 3°C
9/12/19 11:50 EGMD 091150Z 32024KT 9999 FEW035 10/03 Q1010 NW (320°) 27.6mph 10°C 3°C
9/12/19 11:20 EGMD 091120Z 32027KT 9999 FEW035 09/03 Q1009 NW (320°) 31.1mph 9°C 3°C
9/12/19 10:50 EGMD 091050Z 32024KT 9999 SCT032 09/03 Q1008 NW (320°) 27.6mph 9°C 3°C
9/12/19 10:20 EGMD 091020Z 32026KT 9999 FEW027 SCT033 09/04 Q1007 NW (320°) 29.9mph 9°C 4°C
9/12/19 09:50 EGMD 090950Z 32025G35KT 9999 FEW025 SCT030 09/04 Q1006 NW (320°) 28.8mph 40.3mph 9°C 4°C
9/12/19 09:20 EGMD 090920Z 32025KT 9999 FEW025 SCT029 09/04 Q1004 NW (320°) 28.8mph 9°C 4°C
9/12/19 08:50 EGMD 090850Z 32023KT 9999 FEW026 BKN030 09/05 Q1003 NW (320°) 26.5mph 9°C 5°C
9/12/19 08:20 EGMD 090820Z 32022KT 9999 SCT025 BKN031 09/05 Q1002 NW (320°) 25.3mph 9°C 5°C
9/12/19 07:50 EGMD 090750Z AUTO 32020KT 9999 SCT023/// BKN039/// 08/05 Q1000 NW (320°) 23.0mph 8°C 5°C
9/12/19 07:20 EGMD 090720Z AUTO 32019KT 9999 FEW017/// SCT023/// OVC041/// 08/06 Q0999 NW (320°) 21.9mph 8°C 6°C
9/12/19 06:50 EGMD 090650Z AUTO 31017KT 9999 SCT013/// BKN018/// OVC029/// 08/07 Q0998 NW (310°) 19.6mph 8°C 7°C
9/12/19 05:50 EGMD 090550Z AUTO 26009KT 9999 SCT018/// BKN023/// BKN029/// 08/06 Q0995 W (260°) 10.4mph 8°C 6°C
9/12/19 05:20 EGMD 090520Z AUTO 25015KT 9999 FEW017/// SCT030/// BKN035/// 08/06 Q0995 WSW (250°) 17.3mph 8°C 6°C
9/12/19 04:50 EGMD 090450Z AUTO 25014KT 9999 BKN030/// OVC035/// 08/06 Q0994 WSW (250°) 16.1mph 8°C 6°C
9/12/19 03:50 EGMD 090350Z AUTO 26012KT 9999 NCD 08/04 Q0994 W (260°) 13.8mph 8°C 4°C
9/12/19 03:20 EGMD 090320Z AUTO 27017KT 9999 FEW028/// 08/05 Q0994 W (270°) 19.6mph 8°C 5°C
9/12/19 02:50 EGMD 090250Z AUTO 27019KT 9999 BKN029/// BKN034/// 08/05 Q0993 W (270°) 21.9mph 8°C 5°C
9/12/19 02:20 EGMD 090220Z AUTO 27023KT 9999 BKN025/// BKN030/// OVC038/// 09/06 Q0992 W (270°) 26.5mph 9°C 6°C
9/12/19 01:50 EGMD 090150Z AUTO 26022KT 9999 BKN023/// OVC029/// 09/06 Q0992 W (260°) 25.3mph 9°C 6°C
9/12/19 01:20 EGMD 090120Z AUTO 24019KT 9999 BKN020/// OVC048/// 09/07 Q0991 WSW (240°) 21.9mph 9°C 7°C
9/12/19 00:50 EGMD 090050Z AUTO 25024G37KT 9999 BKN022/// BKN034/// OVC039/// 09/07 Q0992 RERA WSW (250°) 27.6mph 42.6mph 9°C 7°C
9/12/19 00:20 EGMD 090020Z AUTO 23022KT 6000 -RA SCT019/// SCT024/// BKN030/// 10/08 Q0993 -RA SW (230°) 25.3mph 10°C 8°C
8/12/19 23:50 EGMD 082350Z AUTO 23023KT 9999 FEW024/// BKN029/// BKN041/// 10/06 Q0994 SW (230°) 26.5mph 10°C 6°C
8/12/19 23:20 EGMD 082320Z AUTO 24022G32KT 9999 FEW022/// 09/05 Q0995 WSW (240°) 25.3mph 36.8mph 9°C 5°C
8/12/19 22:50 EGMD 082250Z AUTO 24025KT 9999 FEW024/// SCT030/// 09/06 Q0995 WSW (240°) 28.8mph 9°C 6°C
8/12/19 22:20 EGMD 082220Z AUTO 25022KT 9999 NCD 09/05 Q0996 WSW (250°) 25.3mph 9°C 5°C
8/12/19 21:50 EGMD 082150Z AUTO 25019KT 9999 FEW033/// 09/05 Q0997 WSW (250°) 21.9mph 9°C 5°C
8/12/19 21:20 EGMD 082120Z AUTO 25020KT 9999 NCD 09/04 Q0998 WSW (250°) 23.0mph 9°C 4°C
8/12/19 20:50 EGMD 082050Z AUTO 25023G33KT 9999 NCD 09/05 Q0998 WSW (250°) 26.5mph 38.0mph 9°C 5°C
8/12/19 20:20 EGMD 082020Z AUTO 24018KT 9999 FEW032/// 09/05 Q0998 WSW (240°) 20.7mph 9°C 5°C
8/12/19 19:50 EGMD 081950Z AUTO 25021KT 9999 NCD 08/04 Q0999 WSW (250°) 24.2mph 8°C 4°C
8/12/19 19:20 EGMD 081920Z AUTO 25021G31KT 9999 NCD 09/05 Q0999 WSW (250°) 24.2mph 35.7mph 9°C 5°C
8/12/19 18:50 EGMD 081850Z AUTO 25021KT 9999 NCD 08/04 Q0999 WSW (250°) 24.2mph 8°C 4°C
8/12/19 18:20 EGMD 081820Z 25017KT CAVOK 08/04 Q1000 WSW (250°) 19.6mph 8°C 4°C
8/12/19 17:50 EGMD 081750Z 25016KT 9999 FEW024 08/05 Q1000 WSW (250°) 18.4mph 8°C 5°C
8/12/19 16:50 EGMD 081650Z 26015KT 9999 VCSH FEW024 SCT030CB 08/05 Q1000 VCSH W (260°) 17.3mph 8°C 5°C
8/12/19 16:20 EGMD 081620Z 26021G31KT 9999 VCSH FEW022 SCT030CB 09/06 Q1000 RESHRA VCSH W (260°) 24.2mph 35.7mph 9°C 6°C
8/12/19 15:50 EGMD 081550Z 24022G34KT 9999 FEW028 10/06 Q1000 WSW (240°) 25.3mph 39.1mph 10°C 6°C
8/12/19 15:20 EGMD 081520Z 24022KT 9999 FEW026 SCT032 11/06 Q1000 WSW (240°) 25.3mph 11°C 6°C
8/12/19 14:50 EGMD 081450Z 25023KT 9999 FEW012 SCT026 11/07 Q1001 WSW (250°) 26.5mph 11°C 7°C
8/12/19 14:20 EGMD 081420Z 25022G34KT 9999 FEW025 11/06 Q1001 WSW (250°) 25.3mph 39.1mph 11°C 6°C
8/12/19 13:50 EGMD 081350Z 25025G35KT 9999 FEW030 11/06 Q1001 WSW (250°) 28.8mph 40.3mph 11°C 6°C
8/12/19 13:20 EGMD 081320Z 24024KT 9999 FEW030 12/06 Q1001 WSW (240°) 27.6mph 12°C 6°C
8/12/19 12:50 EGMD 081250Z 25025KT 9999 FEW031 12/06 Q1002 WSW (250°) 28.8mph 12°C 6°C